Time;durP1;ratioP1;P1;durP2;ratioP2;P2;SDS_P1;SDS_P2;PMS_P1;PMS_P2;Temp;Humidity;BMP_temperature;BMP_pressure;BME280_temperature;BME280_humidity;BME280_pressure;Samples;Min_cycle;Max_cycle;Signal;HPM_P1;HPM_P2
2021/12/24 00:01:58;;;;;;;;;;;;;;;3.40;83.86;95914.84;5095905;28;20403;-81
2021/12/24 00:04:25;;;;;;;;;;;;;;;3.38;83.86;95901.28;5095690;28;19960;-81
2021/12/24 00:06:51;;;;;;;;;;;;;;;3.36;85.85;95893.72;5095668;28;19956;-81
2021/12/24 00:09:23;;;;;;;;;;;;;;;3.38;87.31;95898.69;5095470;28;19974;-81
2021/12/24 00:11:50;;;;;;;;;;;;;;;3.43;88.93;95891.97;5096019;28;19958;-81
2021/12/24 00:14:16;;;;;;;;;;;;;;;3.51;89.25;95891.03;5095568;28;20368;-81
2021/12/24 00:16:47;;;;;;;;;;;;;;;3.57;88.34;95885.13;5095837;28;19955;-82
2021/12/24 00:35:32;;;;;;;;;;;;;;;3.77;87.69;95853.34;5095310;28;19979;-81
2021/12/24 00:38:03;;;;;;;;;;;;;;;3.77;88.17;95854.13;5095103;28;19991;-81
2021/12/24 00:40:38;;;;;;;;;;;;;;;3.76;87.85;95852.53;5095191;28;19954;-81
2021/12/24 00:43:04;;;;;;;;;;;;;;;3.74;86.15;95851.09;5082496;28;19949;-81
2021/12/24 00:45:33;;;;;;;;;;;;;;;3.71;85.56;95848.91;5095059;28;20330;-81
2021/12/24 00:48:00;;;;;;;;;;;;;;;3.67;85.98;95835.50;5095029;28;19977;-81
2021/12/24 00:50:28;;;;;;;;;;;;;;;3.64;87.91;95834.09;5077042;28;19957;-81
2021/12/24 00:53:01;;;;;;;;;;;;;;;3.62;87.21;95830.88;5059727;28;19958;-82
2021/12/24 00:55:28;;;;;;;;;;;;;;;3.59;86.68;95835.66;5094965;28;19985;-81
2021/12/24 00:57:55;;;;;;;;;;;;;;;3.57;88.06;95832.44;5094780;28;19960;-81
2021/12/24 01:00:27;;;;;;;;;;;;;;;3.54;87.47;95823.25;5076888;28;19961;-81
2021/12/24 01:02:53;;;;;;;;;;;;;;;3.55;89.03;95818.88;5078676;28;19955;-81
2021/12/24 01:05:21;;;;;;;;;;;;;;;3.55;88.41;95818.88;5094427;28;20301;-81
2021/12/24 01:07:49;;;;;;;;;;;;;;;3.53;88.50;95815.66;5094538;28;19965;-81
2021/12/24 01:10:17;;;;;;;;;;;;;;;3.52;87.58;95816.66;5094821;28;19965;-80
2021/12/24 01:12:43;;;;;;;;;;;;;;;3.51;88.55;95817.63;5094422;28;19964;-80
2021/12/24 01:15:09;;;;;;;;;;;;;;;3.50;86.99;95816.03;5094449;28;20389;-81
2021/12/24 01:17:49;;;;;;;;;;;;;;;3.45;87.45;95832.16;5094436;28;20335;-81
2021/12/24 01:25:47;;;;;;;;;;;;;;;3.38;86.61;95826.94;5094334;28;19964;-80
2021/12/24 01:39:05;;;;;;;;;;;;;;;3.29;88.22;95829.84;5093982;28;20433;-81
2021/12/24 01:44:16;;;;;;;;;;;;;;;3.29;87.61;95829.84;5084135;28;19985;-81
2021/12/24 01:46:42;;;;;;;;;;;;;;;3.28;86.79;95821.28;5093882;28;19952;-81
2021/12/24 01:49:08;;;;;;;;;;;;;;;3.28;86.43;95820.47;5093647;28;20708;-82
2021/12/24 01:51:33;;;;;;;;;;;;;;;3.26;87.49;95825.84;5093854;28;20011;-82
2021/12/24 01:53:59;;;;;;;;;;;;;;;3.25;86.73;95830.22;5084851;28;19992;-81
2021/12/24 01:56:25;;;;;;;;;;;;;;;3.24;87.67;95822.63;5093721;28;19975;-81
2021/12/24 01:58:51;;;;;;;;;;;;;;;3.26;88.80;95815.47;5093777;28;19964;-81
2021/12/24 02:01:17;;;;;;;;;;;;;;;3.26;88.94;95810.28;5058895;28;20001;-81
2021/12/24 02:03:43;;;;;;;;;;;;;;;3.27;88.45;95818.88;5093708;28;19967;-81
2021/12/24 02:06:09;;;;;;;;;;;;;;;3.26;88.10;95818.06;5093517;28;19959;-81
2021/12/24 02:08:35;;;;;;;;;;;;;;;3.25;88.52;95811.28;5093444;28;20065;-81
2021/12/24 02:11:01;;;;;;;;;;;;;;;3.26;87.97;95812.88;5075774;28;20301;-81
2021/12/24 02:13:26;;;;;;;;;;;;;;;3.27;89.06;95811.09;5074891;28;19955;-81
2021/12/24 02:29:33;;;;;;;;;;;;;;;3.30;89.11;95798.56;5081298;28;20443;-80
2021/12/24 02:31:59;;;;;;;;;;;;;;;3.33;89.98;95789.63;5093339;28;20854;-81
2021/12/24 02:34:25;;;;;;;;;;;;;;;3.36;89.41;95791.81;5093604;28;20000;-81
2021/12/24 02:36:50;;;;;;;;;;;;;;;3.38;90.38;95782.06;5093281;28;19966;-81
2021/12/24 02:39:17;;;;;;;;;;;;;;;3.40;88.79;95788.69;5093183;28;19965;-81
2021/12/24 02:41:42;;;;;;;;;;;;;;;3.40;88.48;95773.13;5075356;28;20291;-81
2021/12/24 02:44:08;;;;;;;;;;;;;;;3.40;88.26;95769.72;5093700;28;19967;-81
2021/12/24 02:46:43;;;;;;;;;;;;;;;3.44;90.44;95765.75;5079266;28;20206;-80
2021/12/24 02:53:53;;;;;;;;;;;;;;;3.48;90.27;95772.16;5096995;28;19964;-81
2021/12/24 02:54:45;;;;;;;;;;;;;;;3.55;90.68;95760.06;5096734;28;19998;-82
2021/12/24 02:57:15;;;;;;;;;;;;;;;3.58;89.57;95758.88;5096761;28;19953;-81
2021/12/24 02:59:57;;;;;;;;;;;;;;;3.60;90.27;95756.88;5097326;28;20398;-81
2021/12/24 03:02:23;;;;;;;;;;;;;;;3.61;89.65;95758.47;5065856;28;19957;-81
2021/12/24 03:04:49;;;;;;;;;;;;;;;3.60;90.40;95754.31;5096890;28;19993;-81
2021/12/24 03:07:15;;;;;;;;;;;;;;;3.62;90.19;95753.09;5097070;28;20018;-80
2021/12/24 03:09:41;;;;;;;;;;;;;;;3.63;90.38;95759.09;5096527;28;19987;-80
2021/12/24 03:12:07;;;;;;;;;;;;;;;3.65;89.60;95749.31;5096582;28;19955;-81
2021/12/24 03:14:33;;;;;;;;;;;;;;;3.66;89.45;95743.16;5096722;28;19957;-81
2021/12/24 03:17:01;;;;;;;;;;;;;;;3.68;90.44;95730.81;5096353;28;20380;-81
2021/12/24 03:19:31;;;;;;;;;;;;;;;3.69;90.13;95741.97;5096736;28;19957;-81
2021/12/24 03:22:12;;;;;;;;;;;;;;;3.71;90.66;95738.19;5096448;28;19953;-81
2021/12/24 03:24:38;;;;;;;;;;;;;;;3.73;90.23;95733.63;5096348;28;19954;-81
2021/12/24 03:27:06;;;;;;;;;;;;;;;3.75;89.63;95731.63;5096282;28;20309;-81
2021/12/24 03:29:32;;;;;;;;;;;;;;;3.75;89.54;95729.03;5096603;28;20322;-81
2021/12/24 03:31:58;;;;;;;;;;;;;;;3.78;89.87;95728.66;5096312;28;19954;-81
2021/12/24 03:34:24;;;;;;;;;;;;;;;3.80;89.65;95728.47;5096262;28;20092;-81
2021/12/24 03:36:50;;;;;;;;;;;;;;;3.82;89.72;95731.66;5096059;28;19950;-81
2021/12/24 03:39:16;;;;;;;;;;;;;;;3.84;89.81;95730.50;5096174;28;19958;-81
2021/12/24 03:41:43;;;;;;;;;;;;;;;3.88;89.48;95732.69;5095914;28;19999;-81
2021/12/24 03:44:13;;;;;;;;;;;;;;;3.90;89.40;95730.69;5095973;28;19960;-81
2021/12/24 03:46:57;;;;;;;;;;;;;;;3.89;88.79;95726.53;5095892;28;19966;-81
2021/12/24 03:49:36;;;;;;;;;;;;;;;3.85;88.40;95705.34;5096115;28;19988;-81
2021/12/24 03:54:57;;;;;;;;;;;;;;;3.81;88.06;95707.53;5095488;28;19989;-81
2021/12/24 03:57:23;;;;;;;;;;;;;;;3.78;89.24;95710.50;5095909;28;19970;-81
2021/12/24 03:59:49;;;;;;;;;;;;;;;3.83;90.13;95712.53;5095717;28;19957;-81
2021/12/24 04:02:15;;;;;;;;;;;;;;;3.86;89.63;95706.94;5095607;28;19970;-80
2021/12/24 04:04:41;;;;;;;;;;;;;;;3.87;88.91;95700.78;5094004;28;20641;-81
2021/12/24 04:07:07;;;;;;;;;;;;;;;3.87;88.62;95708.56;5095588;28;19997;-81
2021/12/24 04:09:35;;;;;;;;;;;;;;;3.86;89.15;95702.56;5077086;28;19983;-81
2021/12/24 04:12:01;;;;;;;;;;;;;;;3.86;89.56;95709.53;5095354;28;19983;-81
2021/12/24 04:14:27;;;;;;;;;;;;;;;3.86;88.99;95704.34;5095577;28;20421;-81
2021/12/24 04:16:53;;;;;;;;;;;;;;;3.88;90.40;95706.75;5094464;28;19986;-81
2021/12/24 04:19:36;;;;;;;;;;;;;;;3.90;89.14;95696.97;5094331;28;20458;-81
2021/12/24 04:24:56;;;;;;;;;;;;;;;3.93;89.31;95707.78;5095781;28;19961;-81
2021/12/24 04:27:23;;;;;;;;;;;;;;;3.94;89.37;95703.38;5095399;28;19964;-82
2021/12/24 04:29:49;;;;;;;;;;;;;;;3.95;89.77;95698.00;5094888;28;19966;-81
2021/12/24 04:32:19;;;;;;;;;;;;;;;3.98;89.24;95700.19;5077252;28;19972;-81
2021/12/24 04:34:49;;;;;;;;;;;;;;;3.96;89.04;95712.56;5095065;28;20420;-81
2021/12/24 05:03:42;;;;;;;;;;;;;;;4.06;90.59;95714.81;5095002;28;19970;-81
2021/12/24 05:08:57;;;;;;;;;;;;;;;4.09;89.78;95719.59;5075863;28;20463;-81
2021/12/24 05:11:23;;;;;;;;;;;;;;;4.13;91.10;95710.41;5094245;28;19982;-81
2021/12/24 05:13:50;;;;;;;;;;;;;;;4.18;91.33;95704.63;5094158;28;19956;-81
2021/12/24 05:16:24;;;;;;;;;;;;;;;4.22;89.88;95706.69;5094377;28;19968;-81
2021/12/24 05:24:01;;;;;;;;;;;;;;;4.30;90.55;95713.47;5083297;28;19966;-81
2021/12/24 05:26:28;;;;;;;;;;;;;;;4.34;90.83;95711.28;5094025;28;19989;-81
2021/12/24 05:28:54;;;;;;;;;;;;;;;4.37;90.50;95705.72;5094581;28;19976;-81
2021/12/24 05:31:20;;;;;;;;;;;;;;;4.37;89.73;95709.09;5093828;28;19960;-81
2021/12/24 05:33:46;;;;;;;;;;;;;;;4.37;91.43;95700.53;5075709;28;19963;-82
2021/12/24 05:36:12;;;;;;;;;;;;;;;4.39;91.57;95691.53;5094148;28;19959;-82
2021/12/24 05:38:38;;;;;;;;;;;;;;;4.45;90.46;95689.94;5075808;28;19960;-81
2021/12/24 05:41:04;;;;;;;;;;;;;;;4.45;90.14;95703.72;5094237;28;20049;-81
2021/12/24 05:43:30;;;;;;;;;;;;;;;4.47;89.86;95708.69;5093723;28;19959;-81
2021/12/24 05:45:55;;;;;;;;;;;;;;;4.46;90.43;95707.13;5075925;28;20344;-81
2021/12/24 05:48:22;;;;;;;;;;;;;;;4.47;90.71;95701.72;5093709;28;19964;-81
2021/12/24 05:50:48;;;;;;;;;;;;;;;4.49;91.20;95696.31;5093545;28;20410;-82
2021/12/24 05:53:14;;;;;;;;;;;;;;;4.54;90.51;95706.94;5093664;28;19971;-81
2021/12/24 05:55:40;;;;;;;;;;;;;;;4.55;90.62;95705.13;5075523;28;19987;-81
2021/12/24 05:58:07;;;;;;;;;;;;;;;4.58;90.89;95707.34;5075872;28;20527;-81
2021/12/24 06:00:39;;;;;;;;;;;;;;;4.63;90.49;95704.94;5093831;28;19964;-81
2021/12/24 06:03:06;;;;;;;;;;;;;;;4.62;90.26;95693.75;5095130;28;19962;-81
2021/12/24 06:05:35;;;;;;;;;;;;;;;4.65;90.38;95708.13;5093886;28;19958;-82
2021/12/24 06:08:02;;;;;;;;;;;;;;;4.67;91.15;95706.13;5075560;28;19964;-81
2021/12/24 06:10:28;;;;;;;;;;;;;;;4.71;90.96;95699.56;5093316;28;20458;-81
2021/12/24 06:12:54;;;;;;;;;;;;;;;4.74;90.00;95700.94;5093488;28;19968;-82
2021/12/24 06:15:23;;;;;;;;;;;;;;;4.75;89.87;95705.94;5093516;28;19961;-81
2021/12/24 06:17:52;;;;;;;;;;;;;;;4.77;90.30;95709.16;5093478;28;19961;-81
2021/12/24 06:20:18;;;;;;;;;;;;;;;4.78;89.89;95717.72;5097517;28;19954;-81
2021/12/24 06:22:44;;;;;;;;;;;;;;;4.77;89.38;95710.97;5096472;28;19956;-81
2021/12/24 06:25:10;;;;;;;;;;;;;;;4.74;89.30;95719.91;5097805;28;19973;-82
2021/12/24 06:27:36;;;;;;;;;;;;;;;4.71;89.41;95722.94;5097818;28;19963;-81
2021/12/24 06:30:03;;;;;;;;;;;;;;;4.70;90.06;95733.50;5097263;28;19968;-81
2021/12/24 06:32:33;;;;;;;;;;;;;;;4.68;90.28;95731.94;5097534;28;19958;-82
2021/12/24 06:34:59;;;;;;;;;;;;;;;4.68;89.81;95731.09;5097134;28;19959;-81
2021/12/24 06:37:25;;;;;;;;;;;;;;;4.67;90.13;95722.53;5079198;28;19965;-81
2021/12/24 06:39:51;;;;;;;;;;;;;;;4.67;89.51;95719.91;5097286;28;20000;-81
2021/12/24 06:42:17;;;;;;;;;;;;;;;4.67;89.68;95727.72;5097234;28;20444;-81
2021/12/24 06:44:43;;;;;;;;;;;;;;;4.69;89.70;95730.13;5097127;28;19962;-82
2021/12/24 06:47:09;;;;;;;;;;;;;;;4.68;90.64;95721.53;5079025;28;20002;-82
2021/12/24 06:49:35;;;;;;;;;;;;;;;4.68;90.45;95724.13;5096891;28;19982;-81
2021/12/24 06:52:01;;;;;;;;;;;;;;;4.69;91.12;95724.94;5096967;28;19956;-81
2021/12/24 06:54:27;;;;;;;;;;;;;;;4.70;90.53;95725.72;5097103;28;19989;-82
2021/12/24 06:56:53;;;;;;;;;;;;;;;4.71;90.71;95722.13;5096994;28;20425;-81
2021/12/24 06:59:19;;;;;;;;;;;;;;;4.71;90.57;95722.94;5096893;28;20087;-81
2021/12/24 07:01:45;;;;;;;;;;;;;;;4.74;91.55;95719.13;5078817;28;19974;-81
2021/12/24 07:04:11;;;;;;;;;;;;;;;4.80;91.35;95720.94;5096699;28;19959;-82
2021/12/24 07:06:43;;;;;;;;;;;;;;;4.81;91.43;95723.34;5097039;28;19971;-82
2021/12/24 07:09:09;;;;;;;;;;;;;;;4.85;91.37;95741.91;5078305;28;19970;-81
2021/12/24 07:11:35;;;;;;;;;;;;;;;4.87;90.77;95737.31;5078528;28;19968;-82
2021/12/24 07:14:01;;;;;;;;;;;;;;;4.88;91.33;95736.31;5096714;28;20006;-82
2021/12/24 07:16:27;;;;;;;;;;;;;;;4.91;90.95;95740.31;5095534;28;19971;-82
2021/12/24 07:18:53;;;;;;;;;;;;;;;4.94;90.64;95738.13;5095234;28;19994;-81
2021/12/24 07:21:19;;;;;;;;;;;;;;;4.96;91.14;95737.94;5078947;28;19994;-81
2021/12/24 07:23:45;;;;;;;;;;;;;;;4.96;90.85;95733.53;5096605;28;19968;-82
2021/12/24 07:26:11;;;;;;;;;;;;;;;4.95;90.92;95726.72;5096521;28;19962;-81
2021/12/24 07:28:39;;;;;;;;;;;;;;;4.95;91.02;95731.91;5096246;28;19965;-80
2021/12/24 07:31:05;;;;;;;;;;;;;;;4.96;90.77;95724.94;5095217;28;19954;-81
2021/12/24 07:33:31;;;;;;;;;;;;;;;4.95;90.33;95726.72;5096134;28;19994;-81
2021/12/24 07:35:57;;;;;;;;;;;;;;;4.95;89.97;95716.31;5096110;28;20339;-82
2021/12/24 07:38:23;;;;;;;;;;;;;;;4.94;90.86;95719.16;5096470;28;19965;-81
2021/12/24 07:40:49;;;;;;;;;;;;;;;4.94;90.41;95729.53;5077976;28;19957;-81
2021/12/24 07:43:15;;;;;;;;;;;;;;;4.93;90.32;95723.53;5077704;28;20463;-81
2021/12/24 07:45:42;;;;;;;;;;;;;;;4.92;91.07;95715.94;5095795;28;19969;-81
2021/12/24 07:48:13;;;;;;;;;;;;;;;4.93;91.95;95720.13;5096050;28;19964;-81
2021/12/24 07:53:13;;;;;;;;;;;;;;;4.93;92.72;95720.94;5095635;28;19969;-81
2021/12/24 07:55:39;;;;;;;;;;;;;;;4.93;92.18;95727.94;5095502;28;20002;-81
2021/12/24 07:58:06;;;;;;;;;;;;;;;4.93;92.07;95722.72;5095810;28;20072;-81
2021/12/24 08:00:32;;;;;;;;;;;;;;;4.94;92.44;95719.94;5095569;28;20425;-81
2021/12/24 08:03:01;;;;;;;;;;;;;;;4.94;93.36;95722.53;5095769;28;20327;-81
2021/12/24 08:05:27;;;;;;;;;;;;;;;4.95;92.61;95724.13;5095884;28;19962;-81
2021/12/24 08:07:54;;;;;;;;;;;;;;;4.96;92.49;95728.34;5095728;28;19960;-80
2021/12/24 08:10:21;;;;;;;;;;;;;;;4.97;92.37;95721.34;5095369;28;19975;-81
2021/12/24 08:12:47;;;;;;;;;;;;;;;4.98;92.21;95712.56;5081435;28;19970;-81
2021/12/24 08:15:13;;;;;;;;;;;;;;;4.99;92.42;95714.94;5095521;28;20407;-80
2021/12/24 08:17:40;;;;;;;;;;;;;;;5.00;91.58;95719.16;5077144;28;19993;-81
2021/12/24 08:20:06;;;;;;;;;;;;;;;5.01;92.33;95728.53;5095428;28;20049;-81
2021/12/24 08:22:34;;;;;;;;;;;;;;;5.03;91.89;95733.53;5077130;28;19961;-81
2021/12/24 08:25:00;;;;;;;;;;;;;;;5.03;92.92;95728.34;5094951;28;19964;-81
2021/12/24 08:27:26;;;;;;;;;;;;;;;5.02;92.55;95722.34;5095249;28;19956;-80
2021/12/24 08:29:52;;;;;;;;;;;;;;;5.04;92.17;95722.94;5095164;28;20029;-81
2021/12/24 08:32:18;;;;;;;;;;;;;;;5.04;92.74;95719.53;5095030;28;19960;-81
2021/12/24 08:34:48;;;;;;;;;;;;;;;5.05;92.62;95719.31;5095131;28;20459;-81
2021/12/24 08:37:14;;;;;;;;;;;;;;;5.05;92.74;95711.53;5095283;28;19960;-81
2021/12/24 08:39:40;;;;;;;;;;;;;;;5.04;92.66;95712.53;5094777;28;20302;-81
2021/12/24 08:42:06;;;;;;;;;;;;;;;5.04;92.82;95714.31;5094851;28;19968;-81
2021/12/24 08:44:32;;;;;;;;;;;;;;;5.04;92.91;95715.16;5094914;28;19959;-81
2021/12/24 08:47:01;;;;;;;;;;;;;;;5.04;92.67;95720.34;5076964;28;19972;-81
2021/12/24 08:49:27;;;;;;;;;;;;;;;5.04;92.24;95720.34;5094746;28;19979;-81
2021/12/24 08:51:54;;;;;;;;;;;;;;;5.06;93.93;95720.13;5094653;28;20331;-81
2021/12/24 08:54:21;;;;;;;;;;;;;;;5.06;93.63;95728.75;5094278;28;20000;-81
2021/12/24 08:56:48;;;;;;;;;;;;;;;5.07;93.70;95716.53;5094735;28;20419;-81
2021/12/24 08:59:14;;;;;;;;;;;;;;;5.07;93.73;95713.94;5094526;28;19955;-81
2021/12/24 09:01:42;;;;;;;;;;;;;;;5.07;93.44;95717.31;5076346;28;19969;-81
2021/12/24 09:04:12;;;;;;;;;;;;;;;5.08;93.70;95712.91;5094536;28;20434;-81
2021/12/24 09:06:38;;;;;;;;;;;;;;;5.09;94.43;95706.75;5094678;28;20035;-81
2021/12/24 09:09:06;;;;;;;;;;;;;;;5.11;94.37;95711.75;5094229;28;20403;-81
2021/12/24 09:11:36;;;;;;;;;;;;;;;5.11;94.61;95706.56;5094248;28;20325;-81
2021/12/24 09:14:02;;;;;;;;;;;;;;;5.12;95.40;95702.94;5076433;28;20330;-81
2021/12/24 09:16:28;;;;;;;;;;;;;;;5.12;94.88;95698.53;5094417;28;19972;-81
2021/12/24 09:19:00;;;;;;;;;;;;;;;5.14;95.78;95704.31;5076301;28;20013;-81
2021/12/24 09:21:27;;;;;;;;;;;;;;;5.15;94.80;95707.75;5094456;28;19958;-82
2021/12/24 09:23:55;;;;;;;;;;;;;;;5.16;95.08;95704.94;5076195;28;20325;-83
2021/12/24 09:26:27;;;;;;;;;;;;;;;5.17;95.41;95705.75;5094420;28;19995;-81
2021/12/24 09:28:54;;;;;;;;;;;;;;;5.18;95.48;95707.31;5094214;28;19962;-81
2021/12/24 09:31:19;;;;;;;;;;;;;;;5.18;95.21;95705.53;5094156;28;19974;-81
2021/12/24 09:33:48;;;;;;;;;;;;;;;5.17;95.05;95703.94;5094047;28;19958;-81
2021/12/24 09:36:14;;;;;;;;;;;;;;;5.19;95.97;95695.94;5094438;28;19962;-81
2021/12/24 09:38:40;;;;;;;;;;;;;;;5.19;96.04;95693.34;5094378;28;20013;-81
2021/12/24 09:41:06;;;;;;;;;;;;;;;5.18;95.83;95689.94;5094009;28;19971;-82
2021/12/24 09:43:35;;;;;;;;;;;;;;;5.19;95.88;95690.75;5093929;28;20042;-82
2021/12/24 09:46:01;;;;;;;;;;;;;;;5.19;97.01;95693.34;5094172;28;19956;-82
2021/12/24 09:48:26;;;;;;;;;;;;;;;5.22;96.98;95687.72;5094003;28;19955;-83
2021/12/24 09:50:52;;;;;;;;;;;;;;;5.22;96.74;95690.31;5093883;28;19980;-82
2021/12/24 09:53:18;;;;;;;;;;;;;;;5.24;96.21;95689.13;5093190;28;19968;-82
2021/12/24 09:55:44;;;;;;;;;;;;;;;5.25;96.65;95688.13;5093247;28;19984;-82
2021/12/24 09:58:10;;;;;;;;;;;;;;;5.27;97.26;95685.31;5093906;28;20083;-83
2021/12/24 10:00:36;;;;;;;;;;;;;;;5.29;96.38;95685.91;5094315;28;19963;-82
2021/12/24 10:03:02;;;;;;;;;;;;;;;5.30;97.32;95682.31;5093606;28;19977;-82
2021/12/24 10:05:31;;;;;;;;;;;;;;;5.33;97.69;95688.91;5075938;28;19965;-82
2021/12/24 10:08:10;;;;;;;;;;;;;;;5.34;97.48;95678.31;5094183;28;20003;-82
2021/12/24 10:10:40;;;;;;;;;;;;;;;5.36;97.26;95681.50;5080743;28;19974;-81
2021/12/24 10:13:25;;;;;;;;;;;;;;;5.37;97.19;95679.69;5075649;28;19963;-82
2021/12/24 10:15:55;;;;;;;;;;;;;;;5.38;97.35;95678.72;5093528;28;19960;-82
2021/12/24 10:18:33;;;;;;;;;;;;;;;5.37;97.13;95670.09;5093778;28;19967;-82
2021/12/24 10:21:00;;;;;;;;;;;;;;;5.39;97.08;95656.91;5093024;28;20420;-82
2021/12/24 10:23:43;;;;;;;;;;;;;;;5.41;98.68;95660.09;5093713;28;19967;-82
2021/12/24 10:26:38;;;;;;;;;;;;;;;5.41;98.43;95650.47;5093672;28;19961;-81
2021/12/24 10:29:08;;;;;;;;;;;;;;;5.43;99.84;95653.69;5076424;28;19960;-81
2021/12/24 10:31:36;;;;;;;;;;;;;;;5.44;99.03;95650.09;5093339;28;19978;-81
2021/12/24 10:34:13;;;;;;;;;;;;;;;5.47;99.29;95654.88;5093658;28;19958;-82
2021/12/24 10:36:52;;;;;;;;;;;;;;;5.48;98.94;95653.88;5093743;28;19967;-82
2021/12/24 10:39:44;;;;;;;;;;;;;;;5.53;98.53;95655.06;5093463;28;19957;-82
2021/12/24 10:42:19;;;;;;;;;;;;;;;5.55;99.43;95651.25;5089436;28;19968;-83
2021/12/24 10:44:46;;;;;;;;;;;;;;;5.57;99.32;95645.84;5093711;28;19967;-82
2021/12/24 10:47:25;;;;;;;;;;;;;;;5.59;98.39;95641.25;5093600;28;20318;-82
2021/12/24 10:55:16;;;;;;;;;;;;;;;5.64;99.51;95637.00;5093630;28;20067;-82
2021/12/24 10:57:43;;;;;;;;;;;;;;;5.66;98.81;95645.41;5093367;28;20406;-82
2021/12/24 11:00:15;;;;;;;;;;;;;;;5.68;98.89;95643.38;5093517;28;19953;-82
2021/12/24 11:02:42;;;;;;;;;;;;;;;5.70;98.94;95648.41;5093567;28;19953;-82
2021/12/24 11:05:23;;;;;;;;;;;;;;;5.73;99.72;95642.75;5093611;28;19967;-82
2021/12/24 11:07:50;;;;;;;;;;;;;;;5.74;100.00;95644.38;5097033;28;19966;-83
2021/12/24 11:10:19;;;;;;;;;;;;;;;5.75;100.00;95642.56;5097145;28;19977;-82
2021/12/24 11:12:46;;;;;;;;;;;;;;;5.77;100.00;95641.34;5097140;28;19957;-82
2021/12/24 11:15:24;;;;;;;;;;;;;;;5.79;100.00;95633.34;5079108;28;20038;-82
2021/12/24 11:17:52;;;;;;;;;;;;;;;5.81;100.00;95632.13;5096926;28;20350;-82
2021/12/24 11:20:18;;;;;;;;;;;;;;;5.84;100.00;95631.72;5096865;28;19958;-82
2021/12/24 11:22:59;;;;;;;;;;;;;;;5.86;100.00;95629.72;5096997;28;20323;-82
2021/12/24 11:25:26;;;;;;;;;;;;;;;5.89;100.00;95618.09;5097205;28;20432;-82
2021/12/24 11:27:53;;;;;;;;;;;;;;;5.89;100.00;95616.28;5078530;28;19962;-82
2021/12/24 11:30:21;;;;;;;;;;;;;;;5.92;100.00;95616.88;5096672;28;19970;-82
2021/12/24 11:32:47;;;;;;;;;;;;;;;5.94;99.98;95618.25;5078895;28;19970;-83
2021/12/24 11:35:14;;;;;;;;;;;;;;;5.98;100.00;95616.06;5096641;28;19979;-82
2021/12/24 11:37:44;;;;;;;;;;;;;;;6.02;100.00;95614.63;5096778;28;19955;-82
2021/12/24 11:40:14;;;;;;;;;;;;;;;6.07;100.00;95604.41;5096102;28;20356;-82
2021/12/24 11:42:41;;;;;;;;;;;;;;;6.10;100.00;95598.78;5096730;28;19966;-82
2021/12/24 11:45:08;;;;;;;;;;;;;;;6.13;100.00;95600.94;5096588;28;20097;-83
2021/12/24 11:47:34;;;;;;;;;;;;;;;6.16;100.00;95610.94;5095679;28;20062;-83
2021/12/24 11:50:00;;;;;;;;;;;;;;;6.18;100.00;95608.94;5077977;28;19973;-84
2021/12/24 11:52:27;;;;;;;;;;;;;;;6.21;100.00;95607.72;5078223;28;19966;-81
2021/12/24 11:54:54;;;;;;;;;;;;;;;6.22;100.00;95609.31;5095775;28;20503;-82
2021/12/24 11:57:22;;;;;;;;;;;;;;;6.24;100.00;95610.69;5096028;28;19969;-82
2021/12/24 11:59:48;;;;;;;;;;;;;;;6.25;99.61;95617.50;5095783;28;19968;-81
2021/12/24 12:02:32;;;;;;;;;;;;;;;6.25;99.73;95608.88;5077819;28;20315;-82
2021/12/24 12:05:16;;;;;;;;;;;;;;;6.26;100.00;95613.09;5095869;28;19978;-85
2021/12/24 12:07:43;;;;;;;;;;;;;;;6.26;100.00;95598.28;5077611;28;19956;-82
2021/12/24 12:10:09;;;;;;;;;;;;;;;6.28;100.00;95603.28;5095795;28;19970;-81
2021/12/24 12:12:36;;;;;;;;;;;;;;;6.30;100.00;95601.25;5095729;28;19955;-82
2021/12/24 12:15:21;;;;;;;;;;;;;;;6.32;100.00;95595.81;5095984;28;19958;-81
2021/12/24 12:17:58;;;;;;;;;;;;;;;6.34;100.00;95594.63;5095445;28;19972;-81
2021/12/24 12:20:41;;;;;;;;;;;;;;;6.38;100.00;95592.38;5095814;28;19962;-82
2021/12/24 12:23:14;;;;;;;;;;;;;;;6.39;100.00;95586.16;5095557;28;19969;-82
2021/12/24 12:25:40;;;;;;;;;;;;;;;6.39;100.00;95576.53;5095543;28;19982;-82
2021/12/24 12:28:10;;;;;;;;;;;;;;;6.40;100.00;95574.72;5095638;28;19968;-81
2021/12/24 12:30:42;;;;;;;;;;;;;;;6.43;99.85;95569.91;5095589;28;19972;-84
2021/12/24 12:33:09;;;;;;;;;;;;;;;6.45;100.00;95569.69;5095226;28;19977;-83
2021/12/24 12:35:35;;;;;;;;;;;;;;;6.46;100.00;95563.44;5095228;28;19967;-83
2021/12/24 12:38:01;;;;;;;;;;;;;;;6.47;100.00;95562.47;5095575;28;20010;-83
2021/12/24 12:40:29;;;;;;;;;;;;;;;6.47;100.00;95555.44;5095280;28;19958;-82
2021/12/24 12:42:57;;;;;;;;;;;;;;;6.49;100.00;95553.41;5095382;28;20441;-83
2021/12/24 12:45:23;;;;;;;;;;;;;;;6.52;100.00;95560.00;5094993;28;19969;-84
2021/12/24 12:47:54;;;;;;;;;;;;;;;6.53;100.00;95556.41;5095327;28;19969;-83
2021/12/24 12:50:20;;;;;;;;;;;;;;;6.55;100.00;95551.78;5095067;28;19989;-83
2021/12/24 12:52:46;;;;;;;;;;;;;;;6.56;100.00;95542.16;5095589;28;20414;-84
2021/12/24 12:55:29;;;;;;;;;;;;;;;6.59;100.00;95552.13;5094976;28;19999;-84
2021/12/24 12:58:15;;;;;;;;;;;;;;;6.60;100.00;95544.09;5095405;28;19958;-83
2021/12/24 13:00:41;;;;;;;;;;;;;;;6.66;100.00;95540.63;5080780;28;19962;-83
2021/12/24 13:03:08;;;;;;;;;;;;;;;6.69;100.00;95539.41;5093668;28;19966;-83
2021/12/24 13:05:43;;;;;;;;;;;;;;;6.73;99.94;95550.19;5095064;28;19960;-83
2021/12/24 13:08:13;;;;;;;;;;;;;;;6.75;100.00;95538.53;5094860;28;19952;-83
2021/12/24 13:10:40;;;;;;;;;;;;;;;6.77;99.83;95533.13;5094659;28;19974;-83
2021/12/24 13:13:06;;;;;;;;;;;;;;;6.79;100.00;95533.72;5076798;28;20419;-83
2021/12/24 13:15:53;;;;;;;;;;;;;;;6.81;100.00;95531.69;5094585;28;19955;-84
2021/12/24 13:18:26;;;;;;;;;;;;;;;6.83;100.00;95532.25;5094762;28;19957;-84
2021/12/24 13:23:35;;;;;;;;;;;;;;;6.90;99.65;95517.34;5094847;28;19965;-83
2021/12/24 13:26:14;;;;;;;;;;;;;;;6.96;99.21;95519.09;5076345;28;19966;-83
2021/12/24 13:28:58;;;;;;;;;;;;;;;6.98;99.72;95511.84;5093731;28;20445;-83
2021/12/24 13:31:25;;;;;;;;;;;;;;;7.03;99.34;95511.19;5094102;28;19974;-83
2021/12/24 13:33:51;;;;;;;;;;;;;;;7.08;98.35;95504.31;5094255;28;20427;-83
2021/12/24 13:36:25;;;;;;;;;;;;;;;7.10;98.32;95515.31;5094188;28;19959;-83
2021/12/24 13:38:51;;;;;;;;;;;;;;;7.12;97.80;95507.28;5059397;28;19959;-83
2021/12/24 13:41:17;;;;;;;;;;;;;;;7.13;97.57;95503.66;5094317;28;20032;-83
2021/12/24 13:43:43;;;;;;;;;;;;;;;7.13;97.47;95503.66;5094099;28;19958;-84
2021/12/24 13:46:10;;;;;;;;;;;;;;;7.13;97.07;95501.03;5094502;28;20386;-83
2021/12/24 13:48:57;;;;;;;;;;;;;;;7.13;97.22;95498.44;5094126;28;19967;-83
2021/12/24 13:56:44;;;;;;;;;;;;;;;7.11;96.81;95498.66;5093881;28;20347;-83
2021/12/24 13:59:14;;;;;;;;;;;;;;;7.09;96.84;95500.66;5094692;28;19953;-82
2021/12/24 14:01:41;;;;;;;;;;;;;;;7.09;98.15;95497.28;5094084;28;20328;-84
2021/12/24 14:04:08;;;;;;;;;;;;;;;7.07;97.12;95500.09;5094193;28;19950;-84
2021/12/24 14:06:36;;;;;;;;;;;;;;;7.05;97.61;95496.91;5093937;28;19967;-84
2021/12/24 14:09:13;;;;;;;;;;;;;;;7.06;97.60;95505.53;5093615;28;19959;-84
2021/12/24 14:11:39;;;;;;;;;;;;;;;7.03;99.02;95498.94;5076106;28;19980;-83
2021/12/24 14:14:11;;;;;;;;;;;;;;;7.02;99.64;95497.34;5093954;28;19958;-83
2021/12/24 14:17:14;;;;;;;;;;;;;;;7.03;99.39;95501.53;5093938;28;19964;-84
2021/12/24 14:19:36;;;;;;;;;;;;;;;7.03;100.00;95498.94;5091343;28;19968;-84
2021/12/24 14:22:07;;;;;;;;;;;;;;;7.02;99.97;95505.19;5075865;28;19973;-84
2021/12/24 14:24:35;;;;;;;;;;;;;;;7.01;99.26;95503.56;5093745;28;19980;-85
2021/12/24 14:27:02;;;;;;;;;;;;;;;7.02;100.00;95512.22;5083392;28;19965;-83
2021/12/24 14:29:30;;;;;;;;;;;;;;;7.03;99.77;95513.78;5093751;28;19980;-84
2021/12/24 14:32:00;;;;;;;;;;;;;;;7.03;98.64;95514.56;5093445;28;19970;-84
2021/12/24 14:34:27;;;;;;;;;;;;;;;7.03;98.83;95519.00;5093764;28;19972;-84
2021/12/24 14:37:16;;;;;;;;;;;;;;;7.01;99.05;95515.81;5093717;28;19976;-84
2021/12/24 14:39:44;;;;;;;;;;;;;;;7.01;99.50;95518.41;5095070;28;19968;-84
2021/12/24 14:42:24;;;;;;;;;;;;;;;6.98;100.00;95518.88;5097739;28;19958;-84
2021/12/24 14:44:52;;;;;;;;;;;;;;;6.97;99.86;95522.47;5079678;28;19961;-84
2021/12/24 14:47:20;;;;;;;;;;;;;;;6.98;99.91;95508.44;5097667;28;19966;-84
2021/12/24 14:49:46;;;;;;;;;;;;;;;6.97;99.70;95512.88;5079246;28;19950;-84
2021/12/24 14:52:13;;;;;;;;;;;;;;;6.97;99.26;95512.88;5097382;28;19996;-84